Time;durP1;ratioP1;P1;durP2;ratioP2;P2;SDS_P1;SDS_P2;PMS_P1;PMS_P2;Temp;Humidity;BMP_temperature;BMP_pressure;BME280_temperature;BME280_humidity;BME280_pressure;Samples;Min_cycle;Max_cycle;Signal;HPM_P1;HPM_P2
2023/07/31 00:00:12;;;;;;;1.90;1.47;;;;;;;17.59;70.11;97663.41;6195386;28;20291;-41
2023/07/31 00:03:14;;;;;;;1.93;1.20;;;;;;;17.57;68.99;97662.88;6194468;28;20276;-43
2023/07/31 00:06:17;;;;;;;3.50;1.27;;;;;;;17.53;69.80;97665.31;6199029;28;20228;-41
2023/07/31 00:09:19;;;;;;;1.97;1.40;;;;;;;17.46;68.53;97662.19;6193369;28;20228;-42
2023/07/31 00:12:21;;;;;;;2.10;1.20;;;;;;;17.40;69.36;97654.47;6193564;28;20247;-41
2023/07/31 00:15:23;;;;;;;1.93;1.60;;;;;;;17.44;69.05;97666.25;6193054;28;20224;-42
2023/07/31 00:18:28;;;;;;;1.23;1.13;;;;;;;17.37;69.13;97655.00;6193085;28;20220;-42
2023/07/31 00:21:30;;;;;;;2.43;1.40;;;;;;;17.34;69.30;97669.03;6194335;28;20256;-41
2023/07/31 00:24:33;;;;;;;2.17;1.30;;;;;;;17.14;70.64;97657.41;6196502;28;20231;-42
2023/07/31 00:27:35;;;;;;;4.77;2.60;;;;;;;17.07;71.27;97666.91;6193513;28;20283;-41
2023/07/31 00:30:37;;;;;;;3.87;2.90;;;;;;;17.15;72.04;97685.94;6193359;28;20245;-43
2023/07/31 00:33:40;;;;;;;2.73;2.23;;;;;;;16.98;72.88;97664.81;6193602;28;20236;-41
2023/07/31 00:36:42;;;;;;;3.57;1.70;;;;;;;16.86;73.69;97652.84;6192297;28;20263;-41
2023/07/31 00:39:44;;;;;;;2.63;1.30;;;;;;;16.95;72.92;97684.25;6192620;28;20244;-41
2023/07/31 00:42:46;;;;;;;1.60;1.50;;;;;;;16.92;73.07;97684.00;6192862;28;20320;-41
2023/07/31 00:45:49;;;;;;;1.70;1.20;;;;;;;16.87;72.78;97682.16;6196358;28;20350;-42
2023/07/31 00:48:51;;;;;;;1.73;1.33;;;;;;;16.82;72.73;97679.50;6199877;28;20233;-41
2023/07/31 00:51:54;;;;;;;2.00;1.30;;;;;;;16.83;72.46;97681.09;6192885;28;20231;-41
2023/07/31 00:54:56;;;;;;;2.43;1.30;;;;;;;16.82;72.34;97687.56;6191936;28;20243;-41
2023/07/31 00:57:59;;;;;;;1.50;1.17;;;;;;;16.72;72.31;97663.44;6193818;28;20354;-41
2023/07/31 01:01:02;;;;;;;2.77;1.50;;;;;;;16.81;72.93;97671.72;6190000;28;20713;-45
2023/07/31 01:04:04;;;;;;;1.23;1.13;;;;;;;16.79;73.20;97679.25;6175119;28;20592;-40
2023/07/31 01:07:17;;;;;;;1.60;1.30;;;;;;;16.76;73.39;97677.94;6190754;28;20237;-43
2023/07/31 01:10:23;;;;;;;2.47;1.30;;;;;;;16.72;73.75;97676.91;6174623;28;20240;-41
2023/07/31 01:13:27;;;;;;;1.37;1.20;;;;;;;16.58;73.92;97667.81;6195623;28;20269;-43
2023/07/31 01:16:29;;;;;;;1.47;1.23;;;;;;;16.62;74.22;97660.81;6171349;28;20307;-41
2023/07/31 01:19:32;;;;;;;2.20;1.33;;;;;;;16.56;74.94;97668.13;6192933;28;20824;-43
2023/07/31 01:22:59;;;;;;;2.70;1.40;;;;;;;16.50;75.08;97655.78;6193787;28;20225;-42
2023/07/31 01:26:21;;;;;;;1.40;1.17;;;;;;;16.39;75.05;97660.41;6196679;28;20240;-42
2023/07/31 01:29:56;;;;;;;2.23;1.30;;;;;;;16.37;76.18;97661.78;6197691;28;20229;-41
2023/07/31 01:32:58;;;;;;;3.27;1.47;;;;;;;16.21;75.98;97645.78;6196347;28;20241;-43
2023/07/31 01:36:01;;;;;;;1.53;1.30;;;;;;;16.32;76.11;97665.31;6197576;28;20240;-42
2023/07/31 01:39:03;;;;;;;1.50;1.33;;;;;;;16.32;76.36;97656.47;6197537;28;20221;-43
2023/07/31 01:42:07;;;;;;;1.10;1.00;;;;;;;16.35;76.71;97666.63;6179024;28;20229;-41
2023/07/31 01:45:10;;;;;;;3.00;1.40;;;;;;;16.18;77.20;97637.47;6182311;28;20221;-43
2023/07/31 01:48:12;;;;;;;2.40;1.10;;;;;;;16.18;77.26;97640.16;6199197;28;20236;-42
2023/07/31 01:51:15;;;;;;;1.37;1.20;;;;;;;16.33;77.54;97661.53;6198282;28;20697;-41
2023/07/31 01:54:18;;;;;;;2.20;1.33;;;;;;;16.11;77.67;97642.34;6196860;28;20244;-41
2023/07/31 01:57:20;;;;;;;1.77;1.23;;;;;;;16.24;78.00;97657.84;6178452;28;20631;-41
2023/07/31 02:00:22;;;;;;;2.40;1.60;;;;;;;16.33;77.64;97674.19;6195095;28;20236;-43
2023/07/31 02:03:24;;;;;;;2.10;1.40;;;;;;;16.17;77.61;97651.97;6197709;28;20714;-40
2023/07/31 02:06:27;;;;;;;1.60;1.17;;;;;;;16.31;77.63;97671.78;6178850;28;20229;-41
2023/07/31 02:09:29;;;;;;;1.57;1.40;;;;;;;16.29;78.08;97670.44;6187706;28;20228;-42
2023/07/31 02:12:33;;;;;;;2.80;1.63;;;;;;;16.16;78.70;97666.50;6182720;28;20246;-42
2023/07/31 02:15:36;;;;;;;2.07;1.40;;;;;;;16.14;78.80;97677.50;6180691;28;20688;-42
2023/07/31 02:18:39;;;;;;;3.30;1.80;;;;;;;16.08;79.40;97680.53;6196132;28;20231;-44
2023/07/31 02:21:41;;;;;;;1.63;1.30;;;;;;;16.00;79.26;97671.16;6178753;28;20296;-42
2023/07/31 02:24:43;;;;;;;2.60;1.50;;;;;;;16.06;79.47;97682.66;6178351;28;20315;-41
2023/07/31 02:27:46;;;;;;;3.40;1.60;;;;;;;15.98;80.27;97678.69;6197655;28;20233;-41
2023/07/31 02:30:50;;;;;;;2.50;1.77;;;;;;;15.98;80.52;97684.06;6196182;28;20237;-42
2023/07/31 02:33:52;;;;;;;2.17;1.70;;;;;;;16.05;82.66;97686.44;6194851;28;20245;-44
2023/07/31 02:36:55;;;;;;;2.70;1.60;;;;;;;16.11;82.32;97688.03;6178027;28;20336;-42
2023/07/31 02:39:58;;;;;;;2.37;1.87;;;;;;;16.17;82.13;97695.00;6178142;28;20608;-42
2023/07/31 02:43:02;;;;;;;5.03;1.97;;;;;;;16.03;83.17;97678.66;6187055;28;20235;-42
2023/07/31 02:46:05;;;;;;;1.93;1.73;;;;;;;16.31;82.59;97700.56;6197613;28;20710;-45
2023/07/31 02:49:07;;;;;;;2.00;1.80;;;;;;;16.29;82.55;97708.88;6183936;28;20252;-42
2023/07/31 02:52:09;;;;;;;2.97;1.50;;;;;;;16.27;83.93;97696.81;6200286;28;20235;-42
2023/07/31 02:55:11;;;;;;;3.37;1.90;;;;;;;16.39;83.30;97702.63;6180293;28;20577;-42
2023/07/31 02:58:14;;;;;;;3.80;2.10;;;;;;;16.57;81.93;97709.25;6176925;28;20598;-42
2023/07/31 03:01:16;;;;;;;2.43;1.97;;;;;;;16.70;80.87;97704.06;6177296;28;20480;-43
2023/07/31 03:04:18;;;;;;;2.83;2.10;;;;;;;16.84;78.09;97698.84;6196838;28;20242;-41
2023/07/31 03:07:20;;;;;;;2.73;1.90;;;;;;;16.68;77.78;97668.53;6199074;28;20290;-42
2023/07/31 03:10:23;;;;;;;3.03;1.80;;;;;;;16.91;78.65;97706.63;6200653;28;20252;-41
2023/07/31 03:13:25;;;;;;;2.20;2.00;;;;;;;16.92;77.04;97706.31;6176569;28;20240;-42
2023/07/31 03:16:28;;;;;;;2.03;1.80;;;;;;;16.92;77.96;97703.63;6182377;28;20721;-41
2023/07/31 03:19:32;;;;;;;2.10;1.77;;;;;;;17.04;74.09;97689.78;6194959;28;20323;-42
2023/07/31 03:22:35;;;;;;;2.37;1.70;;;;;;;17.01;73.99;97691.19;6176099;28;20251;-43
2023/07/31 03:25:37;;;;;;;2.40;1.60;;;;;;;16.95;74.79;97689.63;6197217;28;20246;-41
2023/07/31 03:28:39;;;;;;;2.40;2.10;;;;;;;17.04;74.69;97705.94;6180401;28;20383;-41
2023/07/31 03:31:41;;;;;;;1.87;1.73;;;;;;;17.01;72.85;97699.25;6194166;28;20655;-42
2023/07/31 03:34:44;;;;;;;1.87;1.70;;;;;;;17.12;71.54;97715.31;6177905;28;20241;-41
2023/07/31 03:37:47;;;;;;;1.63;1.40;;;;;;;17.12;72.37;97709.91;6195480;28;20276;-43
2023/07/31 03:40:49;;;;;;;2.73;1.33;;;;;;;17.04;72.91;97705.94;6196352;28;20323;-43
2023/07/31 03:43:57;;;;;;;1.70;1.53;;;;;;;16.95;73.51;97707.66;6185143;28;20240;-42
2023/07/31 03:46:59;;;;;;;3.03;1.80;;;;;;;16.86;74.53;97712.84;6196860;28;20268;-43
2023/07/31 03:50:02;;;;;;;3.10;1.80;;;;;;;16.81;75.37;97717.47;6194348;28;20785;-41
2023/07/31 03:53:04;;;;;;;4.37;1.70;;;;;;;16.73;75.79;97706.19;6198498;28;20248;-41
2023/07/31 03:56:06;;;;;;;2.13;1.53;;;;;;;16.69;75.61;97709.69;6176417;28;20235;-43
2023/07/31 03:59:09;;;;;;;3.30;1.60;;;;;;;16.51;75.77;97687.78;6193253;28;20232;-40
2023/07/31 04:02:11;;;;;;;2.10;1.87;;;;;;;16.56;76.37;97694.22;6193983;28;20291;-44
2023/07/31 04:05:13;;;;;;;2.23;1.40;;;;;;;16.73;72.60;97708.88;6196350;28;20684;-40
2023/07/31 04:08:15;;;;;;;2.80;1.73;;;;;;;16.81;72.46;97720.16;6193829;28;20256;-43
2023/07/31 04:11:17;;;;;;;1.50;1.30;;;;;;;16.81;72.66;97712.06;6193945;28;20242;-42
2023/07/31 04:14:20;;;;;;;2.90;1.77;;;;;;;16.79;72.62;97704.25;6193100;28;20244;-41
2023/07/31 04:17:22;;;;;;;1.70;1.60;;;;;;;16.73;73.32;97700.81;6194661;28;20236;-42
2023/07/31 04:20:24;;;;;;;2.13;1.60;;;;;;;16.72;73.36;97701.09;6193524;28;20284;-42
2023/07/31 04:23:27;;;;;;;1.63;1.47;;;;;;;16.73;72.79;97700.00;6196059;28;20236;-42
2023/07/31 04:26:29;;;;;;;2.37;1.60;;;;;;;16.79;71.51;97701.56;6175683;28;20244;-42
2023/07/31 04:29:31;;;;;;;3.20;2.00;;;;;;;16.88;71.21;97701.78;6195969;28;20275;-43
2023/07/31 04:32:35;;;;;;;2.37;1.40;;;;;;;16.91;70.56;97702.03;6195223;28;20256;-42
2023/07/31 04:35:37;;;;;;;2.63;1.80;;;;;;;17.15;66.60;97694.00;6195675;28;20243;-42
2023/07/31 04:38:40;;;;;;;2.50;1.67;;;;;;;17.23;67.17;97706.84;6190333;28;20239;-42
2023/07/31 04:41:43;;;;;;;3.23;1.60;;;;;;;17.15;71.07;97707.47;6177170;28;20323;-42
2023/07/31 04:44:45;;;;;;;2.00;1.80;;;;;;;17.16;68.45;97719.84;6191995;28;20232;-44
2023/07/31 04:47:47;;;;;;;2.10;1.77;;;;;;;17.18;68.62;97722.25;6197758;28;20251;-42
2023/07/31 04:50:50;;;;;;;3.37;1.60;;;;;;;17.19;69.86;97718.47;6192502;28;20284;-42
2023/07/31 04:53:52;;;;;;;4.87;1.47;;;;;;;17.16;69.41;97727.91;6194087;28;20318;-42
2023/07/31 04:56:54;;;;;;;4.30;1.67;;;;;;;17.18;69.25;97728.44;6190956;28;20243;-43
2023/07/31 04:59:56;;;;;;;2.57;1.80;;;;;;;17.22;69.61;97726.78;6192956;28;20236;-44
2023/07/31 05:02:58;;;;;;;4.90;1.77;;;;;;;17.25;69.68;97722.72;6193762;28;20231;-42
2023/07/31 05:06:01;;;;;;;2.83;1.70;;;;;;;17.13;70.33;97706.13;6192647;28;20232;-42
2023/07/31 05:09:03;;;;;;;4.50;1.83;;;;;;;17.26;70.52;97725.13;6191994;28;20299;-42
2023/07/31 05:12:06;;;;;;;2.30;1.70;;;;;;;17.26;70.16;97727.03;6192138;28;20213;-42
2023/07/31 05:15:09;;;;;;;2.93;1.43;;;;;;;17.32;70.94;97735.84;6195851;28;20248;-41
2023/07/31 05:18:11;;;;;;;2.77;1.70;;;;;;;17.25;70.58;97733.50;6193378;28;20303;-42
2023/07/31 05:21:13;;;;;;;3.07;1.57;;;;;;;17.32;69.32;97735.84;6191870;28;20220;-41
2023/07/31 05:24:15;;;;;;;4.07;1.70;;;;;;;17.39;68.10;97741.69;6191540;28;20298;-41
2023/07/31 05:27:18;;;;;;;2.73;1.47;;;;;;;17.41;68.55;97739.53;6191402;28;20569;-43
2023/07/31 05:30:21;;;;;;;2.70;1.60;;;;;;;17.22;69.28;97717.91;6196898;28;20280;-41
2023/07/31 05:33:23;;;;;;;2.67;1.60;;;;;;;17.33;69.52;97729.38;6192583;28;20270;-43
2023/07/31 05:36:25;;;;;;;3.00;2.00;;;;;;;17.27;69.47;97718.66;6190602;28;20220;-42
2023/07/31 05:39:27;;;;;;;1.80;1.43;;;;;;;17.47;69.62;97736.50;6190755;28;20232;-42
2023/07/31 05:42:30;;;;;;;2.10;1.60;;;;;;;17.45;69.43;97727.91;6193524;28;20262;-43
2023/07/31 05:45:32;;;;;;;3.20;1.90;;;;;;;17.57;69.39;97742.88;6189826;28;20240;-42
2023/07/31 05:48:34;;;;;;;3.37;1.70;;;;;;;17.64;69.76;97744.16;6195510;28;21113;-41
2023/07/31 05:51:36;;;;;;;3.80;1.53;;;;;;;17.70;69.56;97747.59;6191751;28;20224;-41
2023/07/31 05:54:38;;;;;;;2.13;1.70;;;;;;;17.77;70.24;97754.25;6191238;28;20236;-42
2023/07/31 05:57:40;;;;;;;1.80;1.50;;;;;;;17.86;67.26;97750.94;6193324;28;20698;-43
2023/07/31 06:00:43;;;;;;;4.37;1.77;;;;;;;17.94;66.49;97744.94;6194856;28;20604;-43
2023/07/31 06:03:45;;;;;;;4.23;2.00;;;;;;;18.08;64.99;97756.63;6191764;28;20259;-42
2023/07/31 06:06:47;;;;;;;3.03;1.73;;;;;;;18.17;64.46;97744.09;6190235;28;20618;-41
2023/07/31 06:09:49;;;;;;;2.70;1.43;;;;;;;18.24;65.72;97749.16;6186199;28;20243;-41
2023/07/31 06:12:52;;;;;;;3.43;1.80;;;;;;;18.30;64.74;97745.28;6193331;28;20240;-42
2023/07/31 06:15:54;;;;;;;2.33;1.77;;;;;;;18.23;62.93;97731.38;6196182;28;20244;-42
2023/07/31 06:18:56;;;;;;;2.23;1.50;;;;;;;18.37;62.90;97753.81;6178182;28;20259;-42
2023/07/31 06:21:58;;;;;;;3.30;1.60;;;;;;;18.37;63.40;97755.69;6196147;28;20238;-44
2023/07/31 06:25:00;;;;;;;4.73;1.50;;;;;;;18.36;60.82;97746.00;6197083;28;20600;-42
2023/07/31 06:28:03;;;;;;;2.07;1.33;;;;;;;18.29;61.84;97743.69;6198162;28;20713;-42
2023/07/31 06:31:05;;;;;;;2.63;1.53;;;;;;;18.31;61.40;97744.97;6199053;28;20323;-41
2023/07/31 06:34:08;;;;;;;4.80;1.60;;;;;;;18.38;60.99;97741.16;6196917;28;20236;-41
2023/07/31 06:37:10;;;;;;;4.83;1.50;;;;;;;18.53;57.59;97755.22;6199506;28;20236;-52
2023/07/31 06:40:13;;;;;;;1.90;1.40;;;;;;;18.84;55.50;97749.41;6194846;28;20601;-53
2023/07/31 06:43:15;;;;;;;6.00;1.60;;;;;;;18.73;54.45;97726.38;6194962;28;20885;-53
2023/07/31 06:46:17;;;;;;;2.77;1.23;;;;;;;19.06;54.17;97746.91;6197615;28;20240;-50
2023/07/31 06:49:20;;;;;;;2.70;1.43;;;;;;;18.87;53.59;97711.03;6196136;28;20311;-51
2023/07/31 06:52:22;;;;;;;4.63;1.63;;;;;;;19.13;52.04;97735.72;6176636;28;20233;-52
2023/07/31 06:55:25;;;;;;;3.00;1.77;;;;;;;19.24;52.08;97750.63;6195210;28;20702;-50
2023/07/31 06:58:27;;;;;;;3.37;1.20;;;;;;;19.06;54.62;97743.38;6198850;28;20244;-52
2023/07/31 07:01:29;;;;;;;4.57;1.57;;;;;;;19.16;53.41;97740.53;6195761;28;20278;-50
2023/07/31 07:04:31;;;;;;;5.13;1.50;;;;;;;19.28;52.17;97740.84;6198804;28;20598;-52
2023/07/31 07:07:34;;;;;;;2.13;1.37;;;;;;;19.20;53.02;97733.41;6198886;28;20706;-50
2023/07/31 07:10:37;;;;;;;3.37;1.33;;;;;;;19.23;53.62;97735.53;6201181;28;20236;-51
2023/07/31 07:13:39;;;;;;;2.23;1.30;;;;;;;19.23;55.06;97740.94;6195317;28;20259;-52
2023/07/31 07:16:41;;;;;;;2.20;1.33;;;;;;;19.54;53.58;97749.28;6176867;28;20236;-48
2023/07/31 07:19:45;;;;;;;3.57;1.50;;;;;;;19.49;53.70;97726.97;6193361;28;20278;-49
2023/07/31 07:22:47;;;;;;;4.90;1.67;;;;;;;19.67;52.58;97747.75;6199940;28;20714;-49
2023/07/31 07:25:51;;;;;;;3.30;1.47;;;;;;;19.65;54.52;97746.44;6191975;28;20322;-52
2023/07/31 07:28:55;;;;;;;3.77;1.80;;;;;;;19.69;53.87;97742.03;6193737;28;20323;-53
2023/07/31 07:32:00;;;;;;;8.20;1.70;;;;;;;19.60;51.66;97714.91;6196113;28;20240;-53
2023/07/31 07:35:02;;;;;;;5.13;1.40;;;;;;;19.78;53.31;97738.34;6197148;28;20262;-42
2023/07/31 07:38:04;;;;;;;5.43;1.53;;;;;;;19.68;51.31;97706.09;6193922;28;20241;-42
2023/07/31 07:41:06;;;;;;;2.87;1.30;;;;;;;19.75;50.74;97719.19;6177792;28;20243;-45
2023/07/31 07:44:08;;;;;;;5.07;1.70;;;;;;;20.00;50.03;97742.22;6198838;28;20224;-42
2023/07/31 07:47:11;;;;;;;3.40;1.30;;;;;;;19.83;51.35;97737.44;6195689;28;20236;-41
2023/07/31 07:50:13;;;;;;;2.67;1.37;;;;;;;20.04;49.33;97737.81;6194955;28;20299;-42
2023/07/31 07:53:15;;;;;;;6.40;1.50;;;;;;;19.94;49.34;97727.22;6193491;28;20608;-45
2023/07/31 07:56:17;;;;;;;3.27;1.57;;;;;;;19.96;50.75;97733.94;6176341;28;20244;-42
2023/07/31 07:59:20;;;;;;;4.70;1.40;;;;;;;20.16;46.10;97716.50;6194263;28;20329;-42
2023/07/31 08:02:22;;;;;;;3.00;1.20;;;;;;;20.10;48.22;97734.72;6176604;28;20237;-43
2023/07/31 08:05:25;;;;;;;3.53;1.23;;;;;;;20.15;47.22;97744.66;6197141;28;20260;-43
2023/07/31 08:08:30;;;;;;;3.70;1.40;;;;;;;20.01;47.88;97730.34;6194319;28;20655;-44
2023/07/31 08:11:33;;;;;;;2.67;1.37;;;;;;;19.98;48.09;97720.13;6196261;28;20229;-41
2023/07/31 08:14:35;;;;;;;3.07;1.40;;;;;;;19.97;47.93;97726.63;6192675;28;20243;-43
2023/07/31 08:17:38;;;;;;;2.57;1.50;;;;;;;19.85;48.52;97702.78;6175936;28;20236;-45
2023/07/31 08:20:40;;;;;;;4.33;1.50;;;;;;;20.07;47.95;97721.81;6189803;28;20249;-44
2023/07/31 08:23:42;;;;;;;3.33;1.60;;;;;;;19.97;48.24;97705.00;6194862;28;20311;-44
2023/07/31 08:26:44;;;;;;;4.10;1.30;;;;;;;20.30;47.63;97725.38;6195860;28;20265;-42
2023/07/31 08:29:47;;;;;;;4.23;1.53;;;;;;;20.33;47.32;97730.19;6183961;28;20244;-42
2023/07/31 08:32:49;;;;;;;2.53;1.50;;;;;;;20.49;46.16;97741.53;6193356;28;20774;-43
2023/07/31 08:35:52;;;;;;;1.93;1.10;;;;;;;20.67;45.81;97718.09;6194272;28;20666;-42
2023/07/31 08:38:54;;;;;;;3.80;1.20;;;;;;;20.67;45.53;97728.91;6192399;28;20229;-42
2023/07/31 08:42:02;;;;;;;4.33;1.63;;;;;;;20.52;44.85;97710.31;6193068;28;20233;-42
2023/07/31 08:45:05;;;;;;;4.13;1.40;;;;;;;20.62;46.05;97747.97;6192823;28;20372;-42
2023/07/31 08:48:08;;;;;;;2.20;1.30;;;;;;;20.76;45.25;97723.56;6201591;28;20236;-44
2023/07/31 08:51:11;;;;;;;4.33;1.47;;;;;;;20.49;44.91;97714.47;6192227;28;20220;-45
2023/07/31 08:54:13;;;;;;;2.93;1.20;;;;;;;20.74;45.32;97732.00;6192500;28;20271;-43
2023/07/31 08:57:16;;;;;;;3.20;1.50;;;;;;;20.57;46.61;97712.91;6192301;28;20228;-42
2023/07/31 09:00:24;;;;;;;2.33;1.20;;;;;;;20.85;48.07;97717.13;6195966;28;20311;-42
2023/07/31 09:03:26;;;;;;;2.50;1.27;;;;;;;21.01;44.73;97720.25;6192635;28;20371;-42
2023/07/31 09:06:30;;;;;;;4.33;1.13;;;;;;;21.01;45.42;97727.59;6193096;28;20224;-44
2023/07/31 09:09:33;;;;;;;2.90;1.33;;;;;;;21.17;47.21;97711.75;6192160;28;20315;-43
2023/07/31 09:12:36;;;;;;;4.97;1.20;;;;;;;21.36;44.18;97712.34;6195367;28;20237;-42
2023/07/31 09:15:42;;;;;;;3.60;1.50;;;;;;;21.19;44.93;97694.09;6192343;28;20233;-42
2023/07/31 09:19:04;;;;;;;3.30;1.33;;;;;;;21.04;46.93;97716.94;6193384;28;20259;-41
2023/07/31 09:22:07;;;;;;;3.77;1.43;;;;;;;21.06;46.23;97711.19;6194617;28;20225;-42
2023/07/31 09:25:27;;;;;;;2.47;1.20;;;;;;;21.17;48.55;97714.44;6195249;28;20228;-43
2023/07/31 09:28:31;;;;;;;3.37;1.20;;;;;;;21.44;47.22;97711.63;6192116;28;20797;-43
2023/07/31 09:31:41;;;;;;;2.33;1.30;;;;;;;21.62;43.51;97709.75;6186984;28;20240;-43
2023/07/31 09:34:44;;;;;;;3.20;1.27;;;;;;;21.64;44.15;97700.22;6192355;28;20240;-44
2023/07/31 09:37:51;;;;;;;6.53;1.87;;;;;;;21.74;43.79;97690.22;6182149;28;20394;-42
2023/07/31 09:40:54;;;;;;;4.60;1.10;;;;;;;21.65;44.12;97703.72;6194242;28;20841;-42
2023/07/31 09:43:56;;;;;;;6.90;1.47;;;;;;;21.93;42.14;97689.94;6197613;28;20315;-43
2023/07/31 09:46:58;;;;;;;2.23;1.23;;;;;;;21.82;42.92;97697.56;6194428;28;20229;-42
2023/07/31 09:50:00;;;;;;;2.50;1.17;;;;;;;21.90;43.68;97681.31;6171253;28;20792;-42
2023/07/31 09:53:03;;;;;;;3.57;1.30;;;;;;;22.06;42.87;97684.38;6177801;28;20234;-42
2023/07/31 09:56:06;;;;;;;2.57;1.40;;;;;;;22.01;43.23;97686.44;6167583;28;20242;-42
2023/07/31 09:59:14;;;;;;;1.73;1.10;;;;;;;22.08;42.63;97662.38;6193110;28;20234;-43
2023/07/31 10:02:22;;;;;;;2.13;1.23;;;;;;;22.30;41.33;97666.88;6176805;28;20226;-42
2023/07/31 10:05:34;;;;;;;1.90;1.20;;;;;;;22.36;41.21;97661.00;6173955;28;20324;-42
2023/07/31 10:08:37;;;;;;;2.27;1.20;;;;;;;22.37;41.31;97665.31;6173538;28;20240;-45
2023/07/31 10:12:00;;;;;;;1.97;1.20;;;;;;;22.41;44.83;97660.00;6172395;28;20237;-45
2023/07/31 10:15:03;;;;;;;1.67;1.10;;;;;;;22.40;44.31;97650.28;6176201;28;20621;-43
2023/07/31 10:18:08;;;;;;;4.33;1.20;;;;;;;22.47;46.61;97650.63;6180033;28;20206;-43
2023/07/31 10:21:12;;;;;;;2.40;1.20;;;;;;;22.53;41.88;97657.47;6171144;28;20227;-44
2023/07/31 10:24:16;;;;;;;1.43;1.10;;;;;;;22.64;44.42;97649.78;6171779;28;20226;-44
2023/07/31 10:27:18;;;;;;;2.83;1.07;;;;;;;22.74;40.28;97656.81;6180098;28;20229;-42
2023/07/31 10:30:24;;;;;;;2.93;1.13;;;;;;;22.70;39.50;97659.38;6179015;28;20264;-42
2023/07/31 10:33:27;;;;;;;1.93;1.20;;;;;;;22.84;40.55;97640.19;6169385;28;20233;-42
2023/07/31 10:36:29;;;;;;;2.30;1.13;;;;;;;22.71;42.38;97631.09;6172871;28;20233;-43
2023/07/31 10:39:36;;;;;;;2.10;1.00;;;;;;;22.89;44.16;97643.53;6171649;28;20228;-44
2023/07/31 10:42:50;;;;;;;1.87;1.37;;;;;;;22.96;40.88;97634.13;6172429;28;20232;-42
2023/07/31 10:45:53;;;;;;;1.02;0.93;;;;;;;22.97;40.53;97622.13;6180322;28;20741;-42
2023/07/31 10:49:03;;;;;;;2.17;1.10;;;;;;;23.09;39.50;97627.69;6179398;28;20244;-44
2023/07/31 10:52:12;;;;;;;4.05;1.63;;;;;;;23.13;39.43;97629.44;6171082;28;20267;-43
2023/07/31 10:55:21;;;;;;;3.63;1.10;;;;;;;23.11;37.95;97622.72;6171304;28;21164;-43
2023/07/31 10:58:25;;;;;;;3.05;1.25;;;;;;;23.12;40.03;97632.47;6171178;28;20292;-44
2023/07/31 11:02:02;;;;;;;3.35;1.30;;;;;;;23.21;39.26;97622.38;6178595;28;20213;-43
2023/07/31 11:05:09;;;;;;;1.73;1.02;;;;;;;23.24;41.83;97626.34;6172441;28;20225;-43
2023/07/31 11:08:11;;;;;;;2.75;1.05;;;;;;;23.13;40.02;97629.44;6173262;28;20237;-44
2023/07/31 11:11:18;;;;;;;2.73;1.40;;;;;;;23.18;38.77;97621.09;6171522;28;20229;-43
2023/07/31 11:14:20;;;;;;;4.05;1.58;;;;;;;23.02;39.29;97613.81;6174109;28;20244;-43
2023/07/31 11:17:25;;;;;;;4.35;1.13;;;;;;;22.93;39.77;97600.25;6162869;28;20237;-42
2023/07/31 11:20:30;;;;;;;2.55;1.38;;;;;;;23.17;36.99;97592.31;6172563;28;20361;-44
2023/07/31 11:23:33;;;;;;;2.10;1.20;;;;;;;23.38;38.42;97599.75;6175069;28;20781;-44
2023/07/31 11:26:37;;;;;;;1.58;1.00;;;;;;;23.48;38.52;97607.53;6173767;28;20600;-43
2023/07/31 11:29:43;;;;;;;4.17;1.37;;;;;;;23.51;38.14;97598.72;6180083;28;20230;-44
2023/07/31 11:32:51;;;;;;;3.57;1.50;;;;;;;23.52;36.89;97586.72;6175744;28;20233;-41
2023/07/31 11:35:54;;;;;;;6.20;1.60;;;;;;;23.36;37.98;97582.97;6172209;28;20237;-43
2023/07/31 11:39:05;;;;;;;1.73;1.13;;;;;;;23.24;41.31;97585.56;6172639;28;20229;-44
2023/07/31 11:42:07;;;;;;;3.13;1.20;;;;;;;23.25;41.39;97579.00;6171761;28;20619;-44
2023/07/31 11:45:10;;;;;;;2.38;1.35;;;;;;;23.34;39.55;97547.94;6179309;28;20225;-44
2023/07/31 11:48:22;;;;;;;3.60;1.42;;;;;;;23.66;39.10;97581.88;6176910;28;20241;-43
2023/07/31 11:51:25;;;;;;;1.40;1.20;;;;;;;23.67;36.59;97558.19;6196972;28;20625;-43
2023/07/31 11:54:29;;;;;;;3.65;1.35;;;;;;;23.66;38.37;97551.16;6195159;28;20276;-43
2023/07/31 11:57:31;;;;;;;2.10;1.58;;;;;;;23.90;39.46;97559.47;6195742;28;20244;-43
2023/07/31 12:00:33;;;;;;;1.90;1.30;;;;;;;24.06;39.88;97537.09;6179577;28;20224;-43
2023/07/31 12:03:36;;;;;;;2.70;1.48;;;;;;;23.97;39.35;97507.22;6198556;28;20267;-45
2023/07/31 12:06:39;;;;;;;2.22;1.27;;;;;;;24.12;38.88;97519.44;6194674;28;20605;-43
2023/07/31 12:09:54;;;;;;;2.03;1.23;;;;;;;24.37;36.75;97518.41;6197819;28;20594;-43
2023/07/31 12:13:03;;;;;;;1.55;1.20;;;;;;;24.31;38.60;97516.22;6194690;28;20236;-43
2023/07/31 12:16:05;;;;;;;2.80;1.20;;;;;;;24.18;37.94;97510.72;6200338;28;20268;-43
2023/07/31 12:19:08;;;;;;;3.20;1.50;;;;;;;23.99;39.53;97493.28;6194281;28;20769;-43
2023/07/31 12:22:12;;;;;;;3.90;1.38;;;;;;;24.16;40.05;97495.84;6191358;28;20236;-45
2023/07/31 12:25:18;;;;;;;2.25;1.42;;;;;;;24.31;36.09;97486.25;6195421;28;20706;-45
2023/07/31 12:28:22;;;;;;;1.85;1.38;;;;;;;24.44;36.16;97496.88;6196208;28;20232;-44
2023/07/31 12:31:28;;;;;;;2.33;1.40;;;;;;;24.50;36.41;97491.22;6174846;28;20237;-43
2023/07/31 12:34:41;;;;;;;3.10;1.45;;;;;;;24.39;37.14;97480.78;6190137;28;20682;-43
2023/07/31 12:37:44;;;;;;;2.08;1.40;;;;;;;24.66;35.55;97482.06;6191501;28;20239;-44
2023/07/31 12:40:46;;;;;;;2.17;1.50;;;;;;;24.92;36.56;97476.28;6194180;28;20579;-43
2023/07/31 12:43:49;;;;;;;1.77;1.52;;;;;;;24.73;34.88;97442.56;6194447;28;20742;-44
2023/07/31 12:46:51;;;;;;;3.50;1.80;;;;;;;24.86;37.30;97477.63;6202737;28;20331;-42
2023/07/31 12:49:53;;;;;;;2.63;1.88;;;;;;;24.95;36.81;97461.97;6185113;28;20415;-43
2023/07/31 12:52:57;;;;;;;2.65;1.80;;;;;;;24.79;35.58;97447.44;6179551;28;20697;-42
2023/07/31 12:55:59;;;;;;;7.00;2.05;;;;;;;25.05;35.67;97457.22;6192861;28;20243;-42
2023/07/31 12:59:01;;;;;;;4.25;1.70;;;;;;;24.81;37.41;97436.19;6193480;28;20232;-43
2023/07/31 13:02:04;;;;;;;3.30;1.98;;;;;;;24.93;36.55;97452.56;6192143;28;21011;-43
2023/07/31 13:05:07;;;;;;;2.45;1.48;;;;;;;24.91;37.03;97442.00;6193799;28;20228;-44
2023/07/31 13:08:09;;;;;;;2.45;1.77;;;;;;;24.79;36.45;97441.22;6205925;28;20216;-44
2023/07/31 13:11:12;;;;;;;3.80;1.73;;;;;;;24.86;35.65;97447.66;6204086;28;20256;-44
2023/07/31 13:14:14;;;;;;;5.68;2.03;;;;;;;24.91;36.82;97430.28;6191438;28;20259;-45
2023/07/31 13:17:19;;;;;;;3.80;1.65;;;;;;;24.95;36.24;97437.44;6193761;28;20243;-44
2023/07/31 13:20:21;;;;;;;2.95;1.63;;;;;;;25.28;34.21;97414.72;6195824;28;20232;-45
2023/07/31 13:23:24;;;;;;;4.60;1.90;;;;;;;25.31;35.00;97411.28;6191576;28;20225;-44
2023/07/31 13:26:26;;;;;;;2.63;1.70;;;;;;;25.32;34.70;97426.53;6198325;28;20271;-43
2023/07/31 13:29:29;;;;;;;1.52;1.40;;;;;;;25.24;34.82;97407.59;6201825;28;20236;-46
2023/07/31 13:32:32;;;;;;;2.42;1.60;;;;;;;25.23;36.00;97395.09;6197243;28;20442;-44
2023/07/31 13:35:34;;;;;;;2.42;1.52;;;;;;;25.33;36.25;97400.84;6196610;28;20324;-46
2023/07/31 13:38:37;;;;;;;4.88;1.40;;;;;;;25.31;35.62;97394.16;6195626;28;20231;-44
2023/07/31 13:41:39;;;;;;;2.00;1.60;;;;;;;25.33;35.25;97387.22;6188129;28;20749;-42
2023/07/31 13:44:42;;;;;;;1.52;1.25;;;;;;;25.20;35.00;97386.44;6183331;28;20212;-43
2023/07/31 13:47:45;;;;;;;4.60;1.60;;;;;;;25.14;35.82;97376.94;6178687;28;20622;-43
2023/07/31 13:50:49;;;;;;;2.00;1.20;;;;;;;25.30;35.70;97381.66;6197600;28;20602;-43
2023/07/31 13:53:51;;;;;;;2.90;1.50;;;;;;;25.20;34.21;97378.28;6183436;28;20625;-42
2023/07/31 13:57:03;;;;;;;1.73;1.20;;;;;;;25.17;34.05;97357.16;6208629;28;20236;-41
2023/07/31 14:00:06;;;;;;;3.17;1.70;;;;;;;25.39;35.31;97364.00;6197781;28;20699;-43
2023/07/31 14:03:09;;;;;;;1.92;1.20;;;;;;;25.53;34.62;97369.09;6197337;28;20229;-43
2023/07/31 14:06:12;;;;;;;2.42;1.42;;;;;;;25.30;34.73;97363.34;6200683;28;20267;-42
2023/07/31 14:09:14;;;;;;;3.15;1.65;;;;;;;25.38;35.00;97373.34;6198742;28;20235;-43
2023/07/31 14:12:17;;;;;;;1.30;1.20;;;;;;;25.54;33.42;97357.03;6200920;28;20342;-43
2023/07/31 14:15:42;;;;;;;1.77;1.40;;;;;;;25.40;33.40;97351.97;6198324;28;20240;-42
2023/07/31 14:18:45;;;;;;;1.90;1.50;;;;;;;25.44;34.61;97363.78;6197815;28;20694;-42
2023/07/31 14:21:48;;;;;;;2.38;1.40;;;;;;;25.29;35.59;97364.50;6181304;28;20240;-42
2023/07/31 14:25:10;;;;;;;2.92;1.40;;;;;;;25.26;35.91;97354.28;6198301;28;20229;-43